sensor_id;sensor_type;location;lat;lon;timestamp;P1;durP1;ratioP1;P2;durP2;ratioP2
12950;SDS011;6540;50.858;7.232;2022-12-20T00:01:20;7.33;;;6.53;;
12950;SDS011;6540;50.858;7.232;2022-12-20T00:03:48;6.53;;;5.30;;
12950;SDS011;6540;50.858;7.232;2022-12-20T00:06:15;6.57;;;4.93;;
12950;SDS011;6540;50.858;7.232;2022-12-20T00:08:40;7.17;;;4.83;;
12950;SDS011;6540;50.858;7.232;2022-12-20T00:11:06;9.13;;;4.80;;
12950;SDS011;6540;50.858;7.232;2022-12-20T00:13:33;5.90;;;5.17;;
12950;SDS011;6540;50.858;7.232;2022-12-20T00:16:07;6.90;;;4.73;;
12950;SDS011;6540;50.858;7.232;2022-12-20T00:18:33;6.20;;;4.37;;
12950;SDS011;6540;50.858;7.232;2022-12-20T00:20:59;7.77;;;4.83;;
12950;SDS011;6540;50.858;7.232;2022-12-20T00:23:26;8.17;;;4.73;;
12950;SDS011;6540;50.858;7.232;2022-12-20T00:25:58;8.40;;;5.40;;
12950;SDS011;6540;50.858;7.232;2022-12-20T00:28:24;5.67;;;4.73;;
12950;SDS011;6540;50.858;7.232;2022-12-20T00:30:53;5.23;;;3.33;;
12950;SDS011;6540;50.858;7.232;2022-12-20T00:33:19;4.23;;;3.37;;
12950;SDS011;6540;50.858;7.232;2022-12-20T00:35:45;7.10;;;3.70;;
12950;SDS011;6540;50.858;7.232;2022-12-20T00:38:10;4.70;;;3.33;;
12950;SDS011;6540;50.858;7.232;2022-12-20T00:40:35;6.97;;;3.97;;
12950;SDS011;6540;50.858;7.232;2022-12-20T00:43:01;5.03;;;3.70;;
12950;SDS011;6540;50.858;7.232;2022-12-20T00:45:26;4.93;;;3.23;;
12950;SDS011;6540;50.858;7.232;2022-12-20T00:47:51;6.20;;;3.93;;
12950;SDS011;6540;50.858;7.232;2022-12-20T00:50:17;8.77;;;3.70;;
12950;SDS011;6540;50.858;7.232;2022-12-20T00:52:42;5.57;;;4.30;;
12950;SDS011;6540;50.858;7.232;2022-12-20T00:55:07;6.77;;;3.80;;
12950;SDS011;6540;50.858;7.232;2022-12-20T00:57:33;5.00;;;3.30;;
12950;SDS011;6540;50.858;7.232;2022-12-20T00:59:58;5.83;;;3.90;;
12950;SDS011;6540;50.858;7.232;2022-12-20T01:02:23;5.27;;;3.60;;
12950;SDS011;6540;50.858;7.232;2022-12-20T01:04:49;5.13;;;3.67;;
12950;SDS011;6540;50.858;7.232;2022-12-20T01:07:15;3.83;;;2.70;;
12950;SDS011;6540;50.858;7.232;2022-12-20T01:09:40;4.70;;;3.13;;
12950;SDS011;6540;50.858;7.232;2022-12-20T01:12:06;4.53;;;3.60;;
12950;SDS011;6540;50.858;7.232;2022-12-20T01:14:31;3.50;;;3.20;;
12950;SDS011;6540;50.858;7.232;2022-12-20T01:16:56;4.00;;;3.60;;
12950;SDS011;6540;50.858;7.232;2022-12-20T01:19:22;5.07;;;3.43;;
12950;SDS011;6540;50.858;7.232;2022-12-20T01:21:47;3.70;;;3.30;;
12950;SDS011;6540;50.858;7.232;2022-12-20T01:24:13;4.10;;;3.47;;
12950;SDS011;6540;50.858;7.232;2022-12-20T01:26:40;4.03;;;3.00;;
12950;SDS011;6540;50.858;7.232;2022-12-20T01:29:06;6.63;;;3.70;;
12950;SDS011;6540;50.858;7.232;2022-12-20T01:31:32;5.33;;;3.77;;
12950;SDS011;6540;50.858;7.232;2022-12-20T01:33:58;4.27;;;3.33;;
12950;SDS011;6540;50.858;7.232;2022-12-20T01:36:24;3.90;;;3.43;;
12950;SDS011;6540;50.858;7.232;2022-12-20T01:38:59;3.70;;;3.37;;
12950;SDS011;6540;50.858;7.232;2022-12-20T01:41:26;4.43;;;3.70;;
12950;SDS011;6540;50.858;7.232;2022-12-20T01:43:56;4.93;;;3.30;;
12950;SDS011;6540;50.858;7.232;2022-12-20T01:46:25;6.47;;;3.77;;
12950;SDS011;6540;50.858;7.232;2022-12-20T01:51:38;4.23;;;3.77;;
12950;SDS011;6540;50.858;7.232;2022-12-20T01:54:31;5.27;;;3.67;;
12950;SDS011;6540;50.858;7.232;2022-12-20T01:57:05;4.13;;;3.53;;
12950;SDS011;6540;50.858;7.232;2022-12-20T01:59:36;4.90;;;3.57;;
12950;SDS011;6540;50.858;7.232;2022-12-20T02:02:05;4.80;;;3.60;;
12950;SDS011;6540;50.858;7.232;2022-12-20T02:04:34;4.40;;;3.50;;
12950;SDS011;6540;50.858;7.232;2022-12-20T02:06:59;5.40;;;3.37;;
12950;SDS011;6540;50.858;7.232;2022-12-20T02:09:27;4.20;;;3.53;;
12950;SDS011;6540;50.858;7.232;2022-12-20T02:31:12;3.40;;;3.03;;
12950;SDS011;6540;50.858;7.232;2022-12-20T02:33:43;3.90;;;2.83;;
12950;SDS011;6540;50.858;7.232;2022-12-20T02:36:13;4.63;;;2.93;;
12950;SDS011;6540;50.858;7.232;2022-12-20T02:38:40;4.13;;;3.17;;
12950;SDS011;6540;50.858;7.232;2022-12-20T02:41:07;3.67;;;3.37;;
12950;SDS011;6540;50.858;7.232;2022-12-20T02:43:33;3.40;;;3.07;;
12950;SDS011;6540;50.858;7.232;2022-12-20T02:46:20;3.50;;;3.20;;
12950;SDS011;6540;50.858;7.232;2022-12-20T02:48:47;3.67;;;3.30;;
12950;SDS011;6540;50.858;7.232;2022-12-20T02:51:15;4.73;;;2.73;;
12950;SDS011;6540;50.858;7.232;2022-12-20T02:53:45;4.30;;;2.67;;
12950;SDS011;6540;50.858;7.232;2022-12-20T02:56:27;3.63;;;3.20;;
12950;SDS011;6540;50.858;7.232;2022-12-20T02:58:57;3.23;;;2.70;;
12950;SDS011;6540;50.858;7.232;2022-12-20T03:01:38;3.77;;;3.47;;
12950;SDS011;6540;50.858;7.232;2022-12-20T03:04:08;4.20;;;3.27;;
12950;SDS011;6540;50.858;7.232;2022-12-20T03:06:34;5.30;;;3.10;;
12950;SDS011;6540;50.858;7.232;2022-12-20T03:09:00;3.70;;;3.40;;
12950;SDS011;6540;50.858;7.232;2022-12-20T03:11:25;3.70;;;3.20;;
12950;SDS011;6540;50.858;7.232;2022-12-20T03:13:51;3.67;;;3.37;;
12950;SDS011;6540;50.858;7.232;2022-12-20T03:16:16;4.70;;;3.10;;
12950;SDS011;6540;50.858;7.232;2022-12-20T03:18:41;3.50;;;3.00;;
12950;SDS011;6540;50.858;7.232;2022-12-20T03:21:07;3.97;;;3.00;;
12950;SDS011;6540;50.858;7.232;2022-12-20T03:23:32;4.30;;;3.03;;
12950;SDS011;6540;50.858;7.232;2022-12-20T03:25:58;3.40;;;3.10;;
12950;SDS011;6540;50.858;7.232;2022-12-20T03:28:23;4.13;;;3.40;;
12950;SDS011;6540;50.858;7.232;2022-12-20T03:30:49;4.60;;;3.47;;
12950;SDS011;6540;50.858;7.232;2022-12-20T03:33:14;5.60;;;3.03;;
12950;SDS011;6540;50.858;7.232;2022-12-20T03:35:40;3.50;;;3.20;;
12950;SDS011;6540;50.858;7.232;2022-12-20T03:38:05;4.40;;;3.47;;
12950;SDS011;6540;50.858;7.232;2022-12-20T03:40:31;3.47;;;3.17;;
12950;SDS011;6540;50.858;7.232;2022-12-20T03:42:56;4.63;;;3.10;;
12950;SDS011;6540;50.858;7.232;2022-12-20T03:45:21;4.57;;;3.60;;
12950;SDS011;6540;50.858;7.232;2022-12-20T03:47:47;6.33;;;3.30;;
12950;SDS011;6540;50.858;7.232;2022-12-20T03:50:12;4.10;;;3.40;;
12950;SDS011;6540;50.858;7.232;2022-12-20T03:52:38;3.60;;;3.13;;
12950;SDS011;6540;50.858;7.232;2022-12-20T03:55:04;6.07;;;3.93;;
12950;SDS011;6540;50.858;7.232;2022-12-20T03:57:29;4.17;;;3.10;;
12950;SDS011;6540;50.858;7.232;2022-12-20T03:59:55;4.10;;;3.33;;
12950;SDS011;6540;50.858;7.232;2022-12-20T04:02:20;5.43;;;3.80;;
12950;SDS011;6540;50.858;7.232;2022-12-20T04:04:46;4.33;;;3.23;;
12950;SDS011;6540;50.858;7.232;2022-12-20T04:07:12;5.03;;;3.13;;
12950;SDS011;6540;50.858;7.232;2022-12-20T04:09:37;3.83;;;3.23;;
12950;SDS011;6540;50.858;7.232;2022-12-20T04:12:02;5.20;;;3.20;;
12950;SDS011;6540;50.858;7.232;2022-12-20T04:14:28;4.03;;;3.30;;
12950;SDS011;6540;50.858;7.232;2022-12-20T04:16:53;4.10;;;3.20;;
12950;SDS011;6540;50.858;7.232;2022-12-20T04:19:19;3.93;;;3.40;;
12950;SDS011;6540;50.858;7.232;2022-12-20T04:21:44;3.97;;;3.20;;
12950;SDS011;6540;50.858;7.232;2022-12-20T04:24:09;4.47;;;3.17;;
12950;SDS011;6540;50.858;7.232;2022-12-20T04:26:35;4.13;;;3.37;;
12950;SDS011;6540;50.858;7.232;2022-12-20T04:29:01;4.70;;;4.17;;
12950;SDS011;6540;50.858;7.232;2022-12-20T04:31:26;7.33;;;3.60;;
12950;SDS011;6540;50.858;7.232;2022-12-20T04:33:52;3.97;;;3.47;;
12950;SDS011;6540;50.858;7.232;2022-12-20T04:36:17;5.90;;;3.30;;
12950;SDS011;6540;50.858;7.232;2022-12-20T04:38:43;3.43;;;3.13;;
12950;SDS011;6540;50.858;7.232;2022-12-20T04:41:08;4.87;;;3.83;;
12950;SDS011;6540;50.858;7.232;2022-12-20T04:43:33;4.37;;;3.10;;
12950;SDS011;6540;50.858;7.232;2022-12-20T04:45:59;4.30;;;3.30;;
12950;SDS011;6540;50.858;7.232;2022-12-20T04:48:25;3.67;;;2.90;;
12950;SDS011;6540;50.858;7.232;2022-12-20T04:50:52;3.80;;;3.27;;
12950;SDS011;6540;50.858;7.232;2022-12-20T04:53:18;5.93;;;3.60;;
12950;SDS011;6540;50.858;7.232;2022-12-20T04:56:02;3.93;;;3.60;;
12950;SDS011;6540;50.858;7.232;2022-12-20T04:58:28;4.77;;;3.20;;
12950;SDS011;6540;50.858;7.232;2022-12-20T05:00:54;5.03;;;3.50;;
12950;SDS011;6540;50.858;7.232;2022-12-20T05:03:20;4.23;;;3.73;;
12950;SDS011;6540;50.858;7.232;2022-12-20T05:05:47;3.70;;;3.10;;
12950;SDS011;6540;50.858;7.232;2022-12-20T05:08:13;4.83;;;4.00;;
12950;SDS011;6540;50.858;7.232;2022-12-20T05:10:39;5.57;;;3.33;;
12950;SDS011;6540;50.858;7.232;2022-12-20T05:13:05;6.40;;;3.60;;
12950;SDS011;6540;50.858;7.232;2022-12-20T05:15:30;6.80;;;4.43;;
12950;SDS011;6540;50.858;7.232;2022-12-20T05:17:56;7.53;;;4.03;;
12950;SDS011;6540;50.858;7.232;2022-12-20T05:20:27;4.93;;;3.07;;
12950;SDS011;6540;50.858;7.232;2022-12-20T05:22:53;4.30;;;3.70;;
12950;SDS011;6540;50.858;7.232;2022-12-20T05:25:38;5.00;;;4.00;;
12950;SDS011;6540;50.858;7.232;2022-12-20T05:28:25;5.10;;;3.17;;
12950;SDS011;6540;50.858;7.232;2022-12-20T05:30:50;4.77;;;3.87;;
12950;SDS011;6540;50.858;7.232;2022-12-20T05:33:16;4.57;;;3.80;;
12950;SDS011;6540;50.858;7.232;2022-12-20T05:35:41;5.87;;;3.60;;
12950;SDS011;6540;50.858;7.232;2022-12-20T05:38:07;3.60;;;3.30;;
12950;SDS011;6540;50.858;7.232;2022-12-20T05:40:32;5.47;;;3.40;;
12950;SDS011;6540;50.858;7.232;2022-12-20T05:42:57;5.43;;;3.33;;
12950;SDS011;6540;50.858;7.232;2022-12-20T05:45:23;7.80;;;3.90;;
12950;SDS011;6540;50.858;7.232;2022-12-20T05:47:48;4.10;;;3.67;;
12950;SDS011;6540;50.858;7.232;2022-12-20T05:50:13;4.17;;;3.57;;
12950;SDS011;6540;50.858;7.232;2022-12-20T05:52:41;4.87;;;3.60;;
12950;SDS011;6540;50.858;7.232;2022-12-20T05:55:06;6.13;;;3.73;;
12950;SDS011;6540;50.858;7.232;2022-12-20T05:57:32;3.83;;;3.40;;
12950;SDS011;6540;50.858;7.232;2022-12-20T05:59:58;6.77;;;3.73;;
12950;SDS011;6540;50.858;7.232;2022-12-20T06:02:23;5.60;;;4.20;;
12950;SDS011;6540;50.858;7.232;2022-12-20T06:04:48;4.67;;;3.70;;
12950;SDS011;6540;50.858;7.232;2022-12-20T06:07:13;4.50;;;3.67;;
12950;SDS011;6540;50.858;7.232;2022-12-20T06:09:39;5.00;;;3.90;;
12950;SDS011;6540;50.858;7.232;2022-12-20T06:12:04;7.67;;;3.63;;
12950;SDS011;6540;50.858;7.232;2022-12-20T06:14:30;3.77;;;3.23;;
12950;SDS011;6540;50.858;7.232;2022-12-20T06:16:55;5.57;;;4.00;;
12950;SDS011;6540;50.858;7.232;2022-12-20T06:19:20;7.57;;;3.77;;
12950;SDS011;6540;50.858;7.232;2022-12-20T06:21:46;4.30;;;3.03;;
12950;SDS011;6540;50.858;7.232;2022-12-20T06:24:11;4.83;;;3.63;;
12950;SDS011;6540;50.858;7.232;2022-12-20T06:26:36;5.27;;;3.30;;
12950;SDS011;6540;50.858;7.232;2022-12-20T06:29:02;4.87;;;3.50;;
12950;SDS011;6540;50.858;7.232;2022-12-20T06:31:31;4.60;;;3.60;;
12950;SDS011;6540;50.858;7.232;2022-12-20T06:34:00;7.07;;;3.87;;
12950;SDS011;6540;50.858;7.232;2022-12-20T06:36:25;6.47;;;4.30;;
12950;SDS011;6540;50.858;7.232;2022-12-20T06:38:51;5.23;;;3.50;;
12950;SDS011;6540;50.858;7.232;2022-12-20T06:41:16;4.23;;;3.00;;
12950;SDS011;6540;50.858;7.232;2022-12-20T06:43:42;4.23;;;3.60;;
12950;SDS011;6540;50.858;7.232;2022-12-20T06:46:07;4.00;;;3.60;;
12950;SDS011;6540;50.858;7.232;2022-12-20T06:48:32;4.37;;;3.50;;
12950;SDS011;6540;50.858;7.232;2022-12-20T06:50:58;3.53;;;3.23;;
12950;SDS011;6540;50.858;7.232;2022-12-20T06:53:23;4.23;;;3.57;;
12950;SDS011;6540;50.858;7.232;2022-12-20T06:55:49;6.23;;;4.20;;
12950;SDS011;6540;50.858;7.232;2022-12-20T06:58:15;3.40;;;2.77;;
12950;SDS011;6540;50.858;7.232;2022-12-20T07:00:41;4.53;;;3.40;;
12950;SDS011;6540;50.858;7.232;2022-12-20T07:03:07;3.90;;;3.60;;
12950;SDS011;6540;50.858;7.232;2022-12-20T07:05:32;3.73;;;3.30;;
12950;SDS011;6540;50.858;7.232;2022-12-20T07:08:01;4.17;;;3.47;;
12950;SDS011;6540;50.858;7.232;2022-12-20T07:10:28;5.53;;;3.83;;
12950;SDS011;6540;50.858;7.232;2022-12-20T07:12:54;5.80;;;3.70;;
12950;SDS011;6540;50.858;7.232;2022-12-20T07:15:20;4.57;;;3.53;;
12950;SDS011;6540;50.858;7.232;2022-12-20T07:17:46;4.37;;;3.43;;
12950;SDS011;6540;50.858;7.232;2022-12-20T07:20:12;4.67;;;3.47;;
12950;SDS011;6540;50.858;7.232;2022-12-20T07:22:37;4.27;;;3.23;;
12950;SDS011;6540;50.858;7.232;2022-12-20T07:25:03;5.97;;;4.20;;
12950;SDS011;6540;50.858;7.232;2022-12-20T07:27:28;4.33;;;3.90;;
12950;SDS011;6540;50.858;7.232;2022-12-20T07:29:54;4.70;;;3.83;;
12950;SDS011;6540;50.858;7.232;2022-12-20T07:32:19;5.90;;;3.57;;
12950;SDS011;6540;50.858;7.232;2022-12-20T07:34:44;5.77;;;4.50;;
12950;SDS011;6540;50.858;7.232;2022-12-20T07:37:10;8.40;;;4.13;;
12950;SDS011;6540;50.858;7.232;2022-12-20T07:39:35;4.20;;;3.80;;
12950;SDS011;6540;50.858;7.232;2022-12-20T07:42:00;6.30;;;4.47;;
12950;SDS011;6540;50.858;7.232;2022-12-20T07:44:26;4.07;;;3.67;;
12950;SDS011;6540;50.858;7.232;2022-12-20T07:46:51;5.13;;;3.33;;
12950;SDS011;6540;50.858;7.232;2022-12-20T07:49:17;6.67;;;3.93;;
12950;SDS011;6540;50.858;7.232;2022-12-20T07:51:43;7.77;;;4.73;;
12950;SDS011;6540;50.858;7.232;2022-12-20T07:54:19;5.13;;;4.63;;
12950;SDS011;6540;50.858;7.232;2022-12-20T07:56:49;4.20;;;3.70;;
12950;SDS011;6540;50.858;7.232;2022-12-20T07:59:20;7.17;;;3.53;;
12950;SDS011;6540;50.858;7.232;2022-12-20T08:01:49;4.93;;;3.33;;
12950;SDS011;6540;50.858;7.232;2022-12-20T08:04:17;3.30;;;3.00;;
12950;SDS011;6540;50.858;7.232;2022-12-20T08:06:45;8.27;;;4.53;;
12950;SDS011;6540;50.858;7.232;2022-12-20T08:09:12;6.43;;;4.20;;
12950;SDS011;6540;50.858;7.232;2022-12-20T08:11:39;6.53;;;3.80;;
12950;SDS011;6540;50.858;7.232;2022-12-20T08:14:07;4.80;;;4.00;;
12950;SDS011;6540;50.858;7.232;2022-12-20T08:16:33;3.97;;;3.53;;
12950;SDS011;6540;50.858;7.232;2022-12-20T08:18:59;5.30;;;3.80;;
12950;SDS011;6540;50.858;7.232;2022-12-20T08:21:24;3.93;;;3.53;;
12950;SDS011;6540;50.858;7.232;2022-12-20T08:23:50;4.03;;;3.63;;
12950;SDS011;6540;50.858;7.232;2022-12-20T08:26:15;4.20;;;3.80;;
12950;SDS011;6540;50.858;7.232;2022-12-20T08:28:41;4.73;;;3.67;;
12950;SDS011;6540;50.858;7.232;2022-12-20T08:31:07;4.87;;;3.40;;
12950;SDS011;6540;50.858;7.232;2022-12-20T08:33:34;4.80;;;4.03;;
12950;SDS011;6540;50.858;7.232;2022-12-20T08:36:03;5.33;;;3.23;;
12950;SDS011;6540;50.858;7.232;2022-12-20T08:38:31;3.83;;;3.13;;
12950;SDS011;6540;50.858;7.232;2022-12-20T08:41:00;6.23;;;3.30;;
12950;SDS011;6540;50.858;7.232;2022-12-20T08:43:33;3.87;;;3.20;;
12950;SDS011;6540;50.858;7.232;2022-12-20T08:45:58;6.77;;;3.53;;
12950;SDS011;6540;50.858;7.232;2022-12-20T08:48:25;5.37;;;3.67;;
12950;SDS011;6540;50.858;7.232;2022-12-20T08:50:54;7.07;;;3.40;;
12950;SDS011;6540;50.858;7.232;2022-12-20T08:53:20;4.73;;;3.30;;
12950;SDS011;6540;50.858;7.232;2022-12-20T08:55:46;4.80;;;3.27;;
12950;SDS011;6540;50.858;7.232;2022-12-20T08:58:11;3.50;;;2.80;;
12950;SDS011;6540;50.858;7.232;2022-12-20T09:00:36;4.37;;;3.13;;
12950;SDS011;6540;50.858;7.232;2022-12-20T09:03:02;6.10;;;3.43;;
12950;SDS011;6540;50.858;7.232;2022-12-20T09:05:27;3.70;;;3.40;;
12950;SDS011;6540;50.858;7.232;2022-12-20T09:07:53;3.13;;;2.80;;
12950;SDS011;6540;50.858;7.232;2022-12-20T09:10:18;3.77;;;3.07;;
12950;SDS011;6540;50.858;7.232;2022-12-20T09:12:43;3.53;;;3.23;;
12950;SDS011;6540;50.858;7.232;2022-12-20T09:15:09;4.13;;;3.00;;
12950;SDS011;6540;50.858;7.232;2022-12-20T09:17:35;6.93;;;3.13;;
12950;SDS011;6540;50.858;7.232;2022-12-20T09:20:00;4.57;;;2.87;;
12950;SDS011;6540;50.858;7.232;2022-12-20T09:22:27;5.43;;;3.50;;
12950;SDS011;6540;50.858;7.232;2022-12-20T09:24:53;2.87;;;2.67;;
12950;SDS011;6540;50.858;7.232;2022-12-20T09:27:19;4.07;;;3.30;;
12950;SDS011;6540;50.858;7.232;2022-12-20T09:29:44;4.77;;;2.73;;
12950;SDS011;6540;50.858;7.232;2022-12-20T09:32:11;9.37;;;3.63;;
12950;SDS011;6540;50.858;7.232;2022-12-20T09:34:37;5.07;;;3.27;;
12950;SDS011;6540;50.858;7.232;2022-12-20T09:37:03;4.37;;;3.20;;
12950;SDS011;6540;50.858;7.232;2022-12-20T09:39:29;3.20;;;2.90;;
12950;SDS011;6540;50.858;7.232;2022-12-20T09:41:54;4.30;;;3.20;;
12950;SDS011;6540;50.858;7.232;2022-12-20T09:44:31;3.63;;;3.07;;
12950;SDS011;6540;50.858;7.232;2022-12-20T09:47:03;3.70;;;3.00;;
12950;SDS011;6540;50.858;7.232;2022-12-20T09:49:35;4.43;;;2.87;;
12950;SDS011;6540;50.858;7.232;2022-12-20T09:52:26;4.07;;;2.97;;
12950;SDS011;6540;50.858;7.232;2022-12-20T09:57:38;3.77;;;3.43;;
12950;SDS011;6540;50.858;7.232;2022-12-20T10:00:15;4.53;;;3.03;;
12950;SDS011;6540;50.858;7.232;2022-12-20T10:02:42;3.50;;;3.20;;
12950;SDS011;6540;50.858;7.232;2022-12-20T10:05:54;4.13;;;3.57;;
12950;SDS011;6540;50.858;7.232;2022-12-20T10:08:03;4.17;;;3.30;;
12950;SDS011;6540;50.858;7.232;2022-12-20T10:10:56;3.90;;;3.57;;
12950;SDS011;6540;50.858;7.232;2022-12-20T10:16:16;3.80;;;3.13;;
12950;SDS011;6540;50.858;7.232;2022-12-20T10:22:10;4.23;;;3.50;;
12950;SDS011;6540;50.858;7.232;2022-12-20T10:24:43;4.17;;;3.47;;
12950;SDS011;6540;50.858;7.232;2022-12-20T10:27:17;4.47;;;3.20;;
12950;SDS011;6540;50.858;7.232;2022-12-20T10:29:44;4.90;;;3.30;;
12950;SDS011;6540;50.858;7.232;2022-12-20T10:32:12;2.93;;;2.73;;
12950;SDS011;6540;50.858;7.232;2022-12-20T10:34:40;3.50;;;2.90;;
12950;SDS011;6540;50.858;7.232;2022-12-20T10:37:12;3.43;;;3.13;;
12950;SDS011;6540;50.858;7.232;2022-12-20T10:39:45;3.57;;;3.07;;
12950;SDS011;6540;50.858;7.232;2022-12-20T10:42:23;8.27;;;3.20;;
12950;SDS011;6540;50.858;7.232;2022-12-20T10:44:49;4.40;;;3.30;;
12950;SDS011;6540;50.858;7.232;2022-12-20T10:50:22;3.23;;;2.93;;
12950;SDS011;6540;50.858;7.232;2022-12-20T10:55:48;5.67;;;3.70;;
12950;SDS011;6540;50.858;7.232;2022-12-20T10:58:14;4.03;;;3.20;;
12950;SDS011;6540;50.858;7.232;2022-12-20T11:00:42;3.43;;;3.13;;
12950;SDS011;6540;50.858;7.232;2022-12-20T11:05:36;4.37;;;3.67;;
12950;SDS011;6540;50.858;7.232;2022-12-20T11:08:13;3.60;;;3.30;;
12950;SDS011;6540;50.858;7.232;2022-12-20T11:10:40;9.20;;;3.77;;
12950;SDS011;6540;50.858;7.232;2022-12-20T11:13:09;4.10;;;3.70;;
12950;SDS011;6540;50.858;7.232;2022-12-20T11:15:48;3.80;;;3.17;;
12950;SDS011;6540;50.858;7.232;2022-12-20T11:21:26;6.77;;;3.50;;
12950;SDS011;6540;50.858;7.232;2022-12-20T11:37:24;6.33;;;4.47;;
12950;SDS011;6540;50.858;7.232;2022-12-20T11:48:46;8.00;;;3.83;;
12950;SDS011;6540;50.858;7.232;2022-12-20T11:51:29;3.63;;;3.33;;
12950;SDS011;6540;50.858;7.232;2022-12-20T11:54:23;4.03;;;2.90;;
12950;SDS011;6540;50.858;7.232;2022-12-20T11:56:55;3.20;;;2.90;;
12950;SDS011;6540;50.858;7.232;2022-12-20T12:02:22;3.77;;;3.30;;
12950;SDS011;6540;50.858;7.232;2022-12-20T12:05:00;3.37;;;2.87;;
12950;SDS011;6540;50.858;7.232;2022-12-20T12:07:30;4.37;;;3.47;;
12950;SDS011;6540;50.858;7.232;2022-12-20T12:09:59;3.30;;;3.00;;
12950;SDS011;6540;50.858;7.232;2022-12-20T12:12:42;3.93;;;2.70;;
12950;SDS011;6540;50.858;7.232;2022-12-20T12:23:16;4.37;;;3.57;;
12950;SDS011;6540;50.858;7.232;2022-12-20T12:25:42;6.83;;;3.57;;
12950;SDS011;6540;50.858;7.232;2022-12-20T12:28:09;6.40;;;4.90;;
12950;SDS011;6540;50.858;7.232;2022-12-20T12:30:38;4.93;;;3.57;;
12950;SDS011;6540;50.858;7.232;2022-12-20T12:33:10;4.30;;;2.60;;
12950;SDS011;6540;50.858;7.232;2022-12-20T12:35:52;4.60;;;3.00;;
12950;SDS011;6540;50.858;7.232;2022-12-20T12:47:38;5.80;;;3.20;;
12950;SDS011;6540;50.858;7.232;2022-12-20T12:50:15;3.20;;;2.90;;
12950;SDS011;6540;50.858;7.232;2022-12-20T12:52:48;5.33;;;3.03;;
12950;SDS011;6540;50.858;7.232;2022-12-20T13:14:58;6.17;;;3.60;;
12950;SDS011;6540;50.858;7.232;2022-12-20T13:16:53;5.33;;;4.20;;
12950;SDS011;6540;50.858;7.232;2022-12-20T13:19:39;4.77;;;4.20;;
12950;SDS011;6540;50.858;7.232;2022-12-20T13:22:24;11.93;;;5.97;;
12950;SDS011;6540;50.858;7.232;2022-12-20T13:40:20;7.50;;;6.37;;
12950;SDS011;6540;50.858;7.232;2022-12-20T13:42:55;7.03;;;5.17;;
12950;SDS011;6540;50.858;7.232;2022-12-20T13:45:23;9.93;;;6.37;;
12950;SDS011;6540;50.858;7.232;2022-12-20T13:47:53;11.10;;;9.97;;
12950;SDS011;6540;50.858;7.232;2022-12-20T13:53:01;5.97;;;4.60;;
12950;SDS011;6540;50.858;7.232;2022-12-20T13:55:32;5.43;;;4.77;;
12950;SDS011;6540;50.858;7.232;2022-12-20T13:58:09;7.50;;;4.10;;
12950;SDS011;6540;50.858;7.232;2022-12-20T14:00:37;4.70;;;3.43;;
12950;SDS011;6540;50.858;7.232;2022-12-20T14:03:02;9.63;;;4.77;;
12950;SDS011;6540;50.858;7.232;2022-12-20T14:05:31;48.40;;;25.03;;
12950;SDS011;6540;50.858;7.232;2022-12-20T14:08:02;50.50;;;27.87;;
12950;SDS011;6540;50.858;7.232;2022-12-20T14:10:31;64.03;;;32.83;;
12950;SDS011;6540;50.858;7.232;2022-12-20T14:12:58;17.03;;;10.17;;
12950;SDS011;6540;50.858;7.232;2022-12-20T14:15:28;9.90;;;6.57;;
12950;SDS011;6540;50.858;7.232;2022-12-20T14:17:55;12.37;;;7.97;;
12950;SDS011;6540;50.858;7.232;2022-12-20T14:20:31;22.17;;;12.70;;
12950;SDS011;6540;50.858;7.232;2022-12-20T14:23:09;15.60;;;9.80;;
12950;SDS011;6540;50.858;7.232;2022-12-20T14:25:41;20.37;;;12.33;;
12950;SDS011;6540;50.858;7.232;2022-12-20T14:28:53;15.17;;;8.90;;
12950;SDS011;6540;50.858;7.232;2022-12-20T14:31:02;12.97;;;9.43;;
12950;SDS011;6540;50.858;7.232;2022-12-20T14:33:29;26.60;;;15.10;;
12950;SDS011;6540;50.858;7.232;2022-12-20T14:38:33;23.10;;;16.17;;
12950;SDS011;6540;50.858;7.232;2022-12-20T14:40:58;19.77;;;15.13;;
12950;SDS011;6540;50.858;7.232;2022-12-20T14:43:31;20.50;;;12.53;;
12950;SDS011;6540;50.858;7.232;2022-12-20T14:46:18;6.30;;;5.47;;
12950;SDS011;6540;50.858;7.232;2022-12-20T14:48:46;11.43;;;8.53;;
12950;SDS011;6540;50.858;7.232;2022-12-20T14:51:12;18.77;;;10.90;;
12950;SDS011;6540;50.858;7.232;2022-12-20T14:53:44;9.57;;;7.73;;
12950;SDS011;6540;50.858;7.232;2022-12-20T14:56:15;13.20;;;7.47;;
12950;SDS011;6540;50.858;7.232;2022-12-20T14:58:43;6.87;;;6.17;;
12950;SDS011;6540;50.858;7.232;2022-12-20T15:01:23;5.93;;;4.77;;
12950;SDS011;6540;50.858;7.232;2022-12-20T15:03:55;7.17;;;5.27;;
12950;SDS011;6540;50.858;7.232;2022-12-20T15:09:06;7.30;;;5.60;;
12950;SDS011;6540;50.858;7.232;2022-12-20T15:11:32;6.70;;;5.47;;
12950;SDS011;6540;50.858;7.232;2022-12-20T15:13:59;7.30;;;4.67;;
12950;SDS011;6540;50.858;7.232;2022-12-20T15:16:26;12.83;;;11.03;;
12950;SDS011;6540;50.858;7.232;2022-12-20T15:18:57;15.67;;;10.80;;
12950;SDS011;6540;50.858;7.232;2022-12-20T15:23:58;15.33;;;10.17;;
12950;SDS011;6540;50.858;7.232;2022-12-20T15:26:25;7.60;;;5.33;;
12950;SDS011;6540;50.858;7.232;2022-12-20T15:28:51;17.67;;;11.20;;
12950;SDS011;6540;50.858;7.232;2022-12-20T15:31:18;36.57;;;22.23;;
12950;SDS011;6540;50.858;7.232;2022-12-20T15:33:45;22.07;;;17.10;;
12950;SDS011;6540;50.858;7.232;2022-12-20T15:36:21;19.03;;;13.87;;
12950;SDS011;6540;50.858;7.232;2022-12-20T15:38:51;16.77;;;12.50;;
12950;SDS011;6540;50.858;7.232;2022-12-20T15:41:21;8.67;;;7.83;;
12950;SDS011;6540;50.858;7.232;2022-12-20T15:43:54;15.53;;;10.50;;
12950;SDS011;6540;50.858;7.232;2022-12-20T15:46:22;12.27;;;9.70;;
12950;SDS011;6540;50.858;7.232;2022-12-20T15:48:48;14.03;;;9.13;;
12950;SDS011;6540;50.858;7.232;2022-12-20T15:51:19;10.07;;;8.40;;
12950;SDS011;6540;50.858;7.232;2022-12-20T15:53:51;5.33;;;4.77;;
12950;SDS011;6540;50.858;7.232;2022-12-20T15:56:18;6.13;;;5.37;;
12950;SDS011;6540;50.858;7.232;2022-12-20T15:58:45;7.70;;;5.40;;
12950;SDS011;6540;50.858;7.232;2022-12-20T16:01:13;6.50;;;5.07;;
12950;SDS011;6540;50.858;7.232;2022-12-20T16:03:42;5.37;;;4.67;;
12950;SDS011;6540;50.858;7.232;2022-12-20T16:06:09;6.20;;;5.20;;
12950;SDS011;6540;50.858;7.232;2022-12-20T16:08:35;19.77;;;11.23;;
12950;SDS011;6540;50.858;7.232;2022-12-20T16:11:00;12.57;;;9.83;;
12950;SDS011;6540;50.858;7.232;2022-12-20T16:13:25;8.67;;;7.07;;
12950;SDS011;6540;50.858;7.232;2022-12-20T16:15:51;8.27;;;7.40;;
12950;SDS011;6540;50.858;7.232;2022-12-20T16:18:17;7.70;;;4.50;;
12950;SDS011;6540;50.858;7.232;2022-12-20T16:20:42;5.80;;;4.67;;
12950;SDS011;6540;50.858;7.232;2022-12-20T16:23:15;5.30;;;4.73;;
12950;SDS011;6540;50.858;7.232;2022-12-20T16:25:42;6.80;;;5.60;;
12950;SDS011;6540;50.858;7.232;2022-12-20T16:28:08;8.33;;;5.30;;
12950;SDS011;6540;50.858;7.232;2022-12-20T16:30:34;13.13;;;9.07;;
12950;SDS011;6540;50.858;7.232;2022-12-20T16:32:59;11.13;;;8.03;;
12950;SDS011;6540;50.858;7.232;2022-12-20T16:35:26;8.00;;;6.43;;
12950;SDS011;6540;50.858;7.232;2022-12-20T16:37:54;13.97;;;10.73;;
12950;SDS011;6540;50.858;7.232;2022-12-20T16:40:24;25.50;;;19.97;;
12950;SDS011;6540;50.858;7.232;2022-12-20T16:42:52;12.03;;;8.27;;
12950;SDS011;6540;50.858;7.232;2022-12-20T16:45:20;11.33;;;7.23;;
12950;SDS011;6540;50.858;7.232;2022-12-20T16:47:47;12.90;;;8.87;;
12950;SDS011;6540;50.858;7.232;2022-12-20T16:50:13;25.17;;;18.03;;
12950;SDS011;6540;50.858;7.232;2022-12-20T16:52:40;19.70;;;14.27;;
12950;SDS011;6540;50.858;7.232;2022-12-20T16:55:08;23.47;;;15.50;;
12950;SDS011;6540;50.858;7.232;2022-12-20T16:57:42;19.37;;;12.53;;
12950;SDS011;6540;50.858;7.232;2022-12-20T17:00:09;20.30;;;13.70;;
12950;SDS011;6540;50.858;7.232;2022-12-20T17:02:40;10.13;;;7.87;;
12950;SDS011;6540;50.858;7.232;2022-12-20T17:05:06;8.40;;;6.13;;
12950;SDS011;6540;50.858;7.232;2022-12-20T17:07:31;17.03;;;12.57;;
12950;SDS011;6540;50.858;7.232;2022-12-20T17:09:57;11.13;;;8.80;;
12950;SDS011;6540;50.858;7.232;2022-12-20T17:12:23;14.53;;;9.77;;
12950;SDS011;6540;50.858;7.232;2022-12-20T17:14:48;8.80;;;6.37;;